createdAt,value
2022-10-16T00:00:40.167Z,7.60
2022-10-16T00:03:07.884Z,7.63
2022-10-16T00:05:39.224Z,8.10
2022-10-16T00:08:06.411Z,7.47
2022-10-16T00:10:33.708Z,7.67
2022-10-16T00:13:00.752Z,7.50
2022-10-16T00:15:27.779Z,7.23
2022-10-16T00:17:54.923Z,6.93
2022-10-16T00:20:22.020Z,7.07
2022-10-16T00:22:49.054Z,7.10
2022-10-16T00:25:16.155Z,6.93
2022-10-16T00:27:43.189Z,6.77
2022-10-16T00:30:10.398Z,6.93
2022-10-16T00:32:37.451Z,7.33
2022-10-16T00:35:04.776Z,7.07
2022-10-16T00:37:31.795Z,6.40
2022-10-16T00:39:58.888Z,6.47
2022-10-16T00:42:26.270Z,6.67
2022-10-16T00:44:53.576Z,6.37
2022-10-16T00:47:23.064Z,6.67
2022-10-16T00:49:51.698Z,6.73
2022-10-16T00:52:18.900Z,6.60
2022-10-16T00:54:47.168Z,6.80
2022-10-16T00:59:43.019Z,6.63
2022-10-16T01:02:12.339Z,6.77
2022-10-16T01:04:43.993Z,6.40
2022-10-16T01:07:40.427Z,6.27
2022-10-16T01:10:16.495Z,5.97
2022-10-16T01:12:47.898Z,6.20
2022-10-16T01:15:18.125Z,6.40
2022-10-16T01:17:49.939Z,6.43
2022-10-16T01:20:33.809Z,6.27
2022-10-16T01:23:09.573Z,6.50
2022-10-16T01:25:55.193Z,6.27
2022-10-16T01:28:24.526Z,6.57
2022-10-16T01:30:54.187Z,6.07
2022-10-16T01:33:36.284Z,5.83
2022-10-16T01:36:05.245Z,6.63
2022-10-16T01:38:39.755Z,6.33
2022-10-16T01:41:11.927Z,6.77
2022-10-16T01:43:42.514Z,6.63
2022-10-16T01:46:11.127Z,6.03
2022-10-16T01:48:38.407Z,6.40
2022-10-16T01:51:08.118Z,6.63
2022-10-16T01:53:35.329Z,6.90
2022-10-16T01:56:03.422Z,6.73
2022-10-16T01:58:35.495Z,6.30
2022-10-16T02:01:03.726Z,7.43
2022-10-16T02:03:30.900Z,7.03
2022-10-16T02:05:59.226Z,7.67
2022-10-16T02:08:29.073Z,7.73
2022-10-16T02:10:59.900Z,7.20
2022-10-16T02:13:37.427Z,7.27
2022-10-16T02:16:04.815Z,7.90
2022-10-16T02:18:31.891Z,7.90
2022-10-16T02:21:04.566Z,7.73
2022-10-16T02:23:37.130Z,8.10
2022-10-16T02:26:05.776Z,7.43
2022-10-16T02:28:43.067Z,7.77
2022-10-16T02:31:12.774Z,8.03
2022-10-16T02:33:41.579Z,8.33
2022-10-16T02:36:09.201Z,8.03
2022-10-16T02:38:36.438Z,8.00
2022-10-16T02:41:03.849Z,8.10
2022-10-16T02:43:31.191Z,8.27
2022-10-16T02:45:58.206Z,8.27
2022-10-16T02:48:25.230Z,7.97
2022-10-16T02:50:52.399Z,7.97
2022-10-16T02:53:19.414Z,7.67
2022-10-16T02:55:46.428Z,8.13
2022-10-16T02:58:13.490Z,7.83
2022-10-16T03:00:40.634Z,7.70
2022-10-16T03:03:07.740Z,7.70
2022-10-16T03:05:34.842Z,8.00
2022-10-16T03:08:01.901Z,7.90
2022-10-16T03:10:29.240Z,7.37
2022-10-16T03:12:56.270Z,6.97
2022-10-16T03:15:23.317Z,7.00
2022-10-16T03:17:50.346Z,7.73
2022-10-16T03:20:17.442Z,6.87
2022-10-16T03:22:44.767Z,6.50
2022-10-16T03:25:11.802Z,6.73
2022-10-16T03:27:38.862Z,6.83
2022-10-16T03:30:06.072Z,6.60
2022-10-16T03:32:33.296Z,6.77
2022-10-16T03:35:00.371Z,7.10
2022-10-16T03:37:27.806Z,6.93
2022-10-16T03:39:55.831Z,6.60
2022-10-16T03:42:22.883Z,7.03
2022-10-16T03:44:49.947Z,6.93
2022-10-16T03:47:21.529Z,7.10
2022-10-16T03:49:48.664Z,6.97
2022-10-16T03:52:15.701Z,6.77
2022-10-16T03:54:42.797Z,7.40
2022-10-16T03:57:09.869Z,6.87
2022-10-16T03:59:36.907Z,7.50
2022-10-16T04:02:04.033Z,7.87
2022-10-16T04:04:31.041Z,7.27
2022-10-16T04:06:58.133Z,6.90
2022-10-16T04:09:25.151Z,7.07
2022-10-16T04:11:52.183Z,7.47
2022-10-16T04:14:19.232Z,7.43
2022-10-16T04:16:46.264Z,7.10
2022-10-16T04:19:13.415Z,7.03
2022-10-16T04:21:40.547Z,7.47
2022-10-16T04:24:07.688Z,7.60
2022-10-16T04:26:34.699Z,7.33
2022-10-16T04:29:01.845Z,7.77
2022-10-16T04:31:28.891Z,7.83
2022-10-16T04:33:55.911Z,7.33
2022-10-16T04:36:25.402Z,7.63
2022-10-16T04:38:55.566Z,7.67
2022-10-16T04:41:22.573Z,8.07
2022-10-16T04:43:49.631Z,7.53
2022-10-16T04:46:16.682Z,7.53
2022-10-16T04:48:43.728Z,7.60
2022-10-16T04:51:10.844Z,8.10
2022-10-16T04:53:37.903Z,8.27
2022-10-16T04:56:04.980Z,7.90
2022-10-16T04:58:32.030Z,7.63
2022-10-16T05:00:59.082Z,7.77
2022-10-16T05:03:26.220Z,7.93
2022-10-16T05:05:53.374Z,8.07
2022-10-16T05:08:20.489Z,7.80
2022-10-16T05:10:47.621Z,7.77
2022-10-16T05:13:14.672Z,7.63
2022-10-16T05:15:41.889Z,8.00
2022-10-16T05:18:08.919Z,7.97
2022-10-16T05:20:35.948Z,7.57
2022-10-16T05:23:03.102Z,7.87
2022-10-16T05:25:30.301Z,7.97
2022-10-16T05:27:57.339Z,7.40
2022-10-16T05:30:24.379Z,7.33
2022-10-16T05:32:52.028Z,7.67
2022-10-16T05:35:19.666Z,7.43
2022-10-16T05:37:46.989Z,7.60
2022-10-16T05:40:14.506Z,7.17
2022-10-16T05:42:41.838Z,7.70
2022-10-16T05:45:10.050Z,7.20
2022-10-16T05:47:37.534Z,7.30
2022-10-16T05:50:05.273Z,7.53
2022-10-16T05:52:32.328Z,7.63
2022-10-16T05:54:59.479Z,7.63
2022-10-16T05:57:26.907Z,7.40
2022-10-16T05:59:54.108Z,7.23
2022-10-16T06:02:21.143Z,6.97
2022-10-16T06:04:48.175Z,7.10
2022-10-16T06:07:15.175Z,7.47
2022-10-16T06:09:42.249Z,7.07
2022-10-16T06:12:09.535Z,7.13
2022-10-16T06:14:36.617Z,7.47
2022-10-16T06:17:03.661Z,7.30
2022-10-16T06:19:30.759Z,6.93
2022-10-16T06:21:58.982Z,7.53
2022-10-16T06:24:26.378Z,7.33
2022-10-16T06:26:53.451Z,7.20
2022-10-16T06:29:20.553Z,7.50
2022-10-16T06:31:47.640Z,7.47
2022-10-16T06:34:14.686Z,7.83
2022-10-16T06:36:42.204Z,7.40
2022-10-16T06:39:09.286Z,8.03
2022-10-16T06:41:36.476Z,7.80
2022-10-16T06:44:08.515Z,7.43
2022-10-16T06:46:35.818Z,7.97
2022-10-16T06:49:02.873Z,8.07
2022-10-16T06:51:30.723Z,8.20
2022-10-16T06:54:05.237Z,8.20
2022-10-16T06:56:34.483Z,8.63
2022-10-16T06:59:01.950Z,8.43
2022-10-16T07:01:29.361Z,8.37
2022-10-16T07:03:56.455Z,8.73
2022-10-16T07:06:24.664Z,9.10
2022-10-16T07:08:51.739Z,8.23
2022-10-16T07:11:20.111Z,8.80
2022-10-16T07:13:52.547Z,9.17
2022-10-16T07:16:23.209Z,8.57
2022-10-16T07:18:55.024Z,9.07
2022-10-16T07:21:23.642Z,8.53
2022-10-16T07:23:54.860Z,8.90
2022-10-16T07:26:22.063Z,8.87
2022-10-16T07:28:49.204Z,9.43
2022-10-16T07:31:17.182Z,9.03
2022-10-16T07:33:45.710Z,8.73
2022-10-16T07:36:16.312Z,8.93
2022-10-16T07:38:43.676Z,8.70
2022-10-16T07:41:11.982Z,8.70
2022-10-16T07:43:39.043Z,8.60
2022-10-16T07:46:06.680Z,8.70
2022-10-16T07:48:34.622Z,8.37
2022-10-16T07:51:02.315Z,8.83
2022-10-16T07:53:29.599Z,8.23
2022-10-16T07:56:00.530Z,8.70
2022-10-16T07:58:28.775Z,8.10
2022-10-16T08:00:56.177Z,8.60
2022-10-16T08:03:23.498Z,7.97
2022-10-16T08:05:50.863Z,8.30
2022-10-16T08:08:18.811Z,7.77
2022-10-16T08:10:45.926Z,8.00
2022-10-16T08:13:15.856Z,8.30
2022-10-16T08:15:46.538Z,7.03
2022-10-16T08:18:14.635Z,7.80
2022-10-16T08:20:42.537Z,6.90
2022-10-16T08:23:11.206Z,7.07
2022-10-16T08:25:38.526Z,7.00
2022-10-16T08:28:06.649Z,7.10
2022-10-16T08:30:33.744Z,7.13
2022-10-16T08:33:00.823Z,6.87
2022-10-16T08:35:27.932Z,6.77
2022-10-16T08:37:55.049Z,7.20
2022-10-16T08:43:01.621Z,6.30
2022-10-16T08:45:28.649Z,5.87
2022-10-16T08:48:12.999Z,5.43
2022-10-16T08:50:41.093Z,5.87
2022-10-16T08:53:08.477Z,5.47
2022-10-16T08:55:40.027Z,5.77
2022-10-16T08:58:17.152Z,5.67
2022-10-16T09:00:45.324Z,5.30
2022-10-16T09:03:18.456Z,5.10
2022-10-16T09:05:54.446Z,6.13
2022-10-16T09:08:24.486Z,6.17
2022-10-16T09:10:51.553Z,6.17
2022-10-16T09:13:37.170Z,6.17
2022-10-16T09:16:23.312Z,5.93
2022-10-16T09:18:50.376Z,5.80
2022-10-16T09:21:19.915Z,5.73
2022-10-16T09:23:47.412Z,6.50
2022-10-16T09:26:15.678Z,6.13
2022-10-16T09:28:43.424Z,6.20
2022-10-16T09:31:19.019Z,6.40
2022-10-16T09:33:46.961Z,5.90
2022-10-16T09:36:15.137Z,5.73
2022-10-16T09:38:42.235Z,6.07
2022-10-16T09:41:12.100Z,5.43
2022-10-16T09:43:43.464Z,5.10
2022-10-16T09:46:22.825Z,5.20
2022-10-16T09:48:51.019Z,5.00
2022-10-16T09:51:20.913Z,4.80
2022-10-16T09:53:48.316Z,5.10
2022-10-16T09:56:33.427Z,5.10
2022-10-16T09:59:28.957Z,5.40
2022-10-16T10:01:56.265Z,3.73
2022-10-16T10:04:26.869Z,4.00
2022-10-16T10:06:55.393Z,3.83
2022-10-16T10:09:30.377Z,3.60
2022-10-16T10:11:57.430Z,3.50
2022-10-16T10:14:26.181Z,3.53
2022-10-16T10:16:54.721Z,2.90
2022-10-16T10:19:23.036Z,3.20
2022-10-16T10:21:51.224Z,3.00
2022-10-16T10:24:19.446Z,2.97
2022-10-16T10:26:59.821Z,3.17
2022-10-16T10:29:40.557Z,2.63
2022-10-16T10:32:10.549Z,2.67
2022-10-16T10:34:43.356Z,2.80
2022-10-16T10:37:10.640Z,2.80
2022-10-16T10:39:45.786Z,2.57
2022-10-16T10:42:18.704Z,1.83
2022-10-16T10:44:46.019Z,0.60
2022-10-16T10:47:19.079Z,0.80
2022-10-16T10:50:04.972Z,0.70
2022-10-16T10:52:41.071Z,0.60
2022-10-16T10:55:14.418Z,0.63
2022-10-16T10:57:57.394Z,0.63
2022-10-16T11:00:35.736Z,0.40
2022-10-16T11:03:15.658Z,0.50
2022-10-16T11:05:57.797Z,0.40
2022-10-16T11:08:27.599Z,0.40
2022-10-16T11:11:03.812Z,0.50
2022-10-16T11:13:39.850Z,0.40
2022-10-16T11:16:30.007Z,0.47
2022-10-16T11:19:00.135Z,0.30
2022-10-16T11:21:31.051Z,0.50
2022-10-16T11:24:04.856Z,0.40
2022-10-16T11:26:36.700Z,0.40
2022-10-16T11:29:05.801Z,0.43
2022-10-16T11:31:46.890Z,0.37
2022-10-16T11:34:16.861Z,0.50
2022-10-16T11:36:53.177Z,0.50
2022-10-16T11:39:22.153Z,0.40
2022-10-16T11:41:51.000Z,0.80
2022-10-16T11:44:26.450Z,0.40
2022-10-16T11:47:18.358Z,0.40
2022-10-16T11:49:48.198Z,0.40
2022-10-16T11:52:20.726Z,0.40
2022-10-16T11:55:01.122Z,0.40
2022-10-16T11:57:33.438Z,0.60
2022-10-16T12:00:03.239Z,0.57
2022-10-16T12:02:36.972Z,0.43
2022-10-16T12:05:22.928Z,0.43
2022-10-16T12:08:11.897Z,0.40
2022-10-16T12:13:29.897Z,0.50
2022-10-16T12:16:07.355Z,0.50
2022-10-16T12:18:34.467Z,0.50
2022-10-16T12:21:06.831Z,0.60
2022-10-16T12:23:34.923Z,0.50
2022-10-16T12:26:03.657Z,0.50
2022-10-16T12:28:32.801Z,0.53
2022-10-16T12:31:01.424Z,0.50
2022-10-16T12:33:32.435Z,0.50
2022-10-16T12:36:01.128Z,0.40
2022-10-16T12:38:29.773Z,0.40
2022-10-16T12:40:59.448Z,0.50
2022-10-16T12:43:29.873Z,0.33
2022-10-16T12:46:01.149Z,0.50
2022-10-16T12:48:36.954Z,0.50
2022-10-16T12:51:26.753Z,0.50
2022-10-16T12:54:12.571Z,0.50
2022-10-16T12:56:49.712Z,0.50
2022-10-16T12:59:32.007Z,0.50
2022-10-16T13:02:07.893Z,0.40
2022-10-16T13:04:35.550Z,0.50
2022-10-16T13:07:22.729Z,0.50
2022-10-16T13:09:55.891Z,0.47
2022-10-16T13:12:33.079Z,0.40
2022-10-16T13:15:03.334Z,0.83
2022-10-16T13:17:33.147Z,0.70
2022-10-16T13:20:02.895Z,0.90
2022-10-16T13:22:42.175Z,0.70
2022-10-16T13:25:18.139Z,0.60
2022-10-16T13:27:45.170Z,0.83
2022-10-16T13:30:18.417Z,0.80
2022-10-16T13:32:47.050Z,0.47
2022-10-16T13:35:28.050Z,0.50
2022-10-16T13:38:07.046Z,0.50
2022-10-16T13:40:35.614Z,0.60
2022-10-16T13:43:02.959Z,0.60
2022-10-16T13:45:30.097Z,0.60
2022-10-16T13:48:06.810Z,0.70
2022-10-16T13:50:33.914Z,0.90
2022-10-16T13:53:15.579Z,0.60
2022-10-16T13:55:42.705Z,0.90
2022-10-16T13:58:13.231Z,0.90
2022-10-16T14:00:40.364Z,0.60
2022-10-16T14:03:09.326Z,0.80
2022-10-16T14:05:36.422Z,0.70
2022-10-16T14:08:03.512Z,0.90
2022-10-16T14:10:31.888Z,1.20
2022-10-16T14:13:06.985Z,0.67
2022-10-16T14:15:36.011Z,0.77
2022-10-16T14:18:03.449Z,0.80
2022-10-16T14:20:32.527Z,0.70
2022-10-16T14:23:01.328Z,0.90
2022-10-16T14:25:29.664Z,0.90
2022-10-16T14:28:06.818Z,0.93
2022-10-16T14:30:35.969Z,1.00
2022-10-16T14:33:08.031Z,1.20
2022-10-16T14:35:36.590Z,1.10
2022-10-16T14:38:04.544Z,0.93
2022-10-16T14:40:33.188Z,1.07
2022-10-16T14:43:01.088Z,1.20
2022-10-16T14:45:30.153Z,1.20
2022-10-16T14:47:59.101Z,1.00
2022-10-16T14:50:26.517Z,1.27
2022-10-16T14:52:53.630Z,1.10
2022-10-16T14:55:20.859Z,1.20
2022-10-16T14:57:48.505Z,1.10
2022-10-16T15:00:20.692Z,1.23
2022-10-16T15:02:48.230Z,1.40
2022-10-16T15:05:17.579Z,1.17
2022-10-16T15:07:44.755Z,1.23
2022-10-16T15:10:12.002Z,1.00
2022-10-16T15:12:39.031Z,1.10
2022-10-16T15:15:24.107Z,1.00
2022-10-16T15:17:56.856Z,1.20
2022-10-16T15:20:28.058Z,1.30
2022-10-16T15:22:55.285Z,1.03
2022-10-16T15:25:31.708Z,1.23
2022-10-16T15:27:58.778Z,1.30
2022-10-16T15:30:25.929Z,1.17
2022-10-16T15:32:52.969Z,1.20
2022-10-16T15:35:20.188Z,1.47
2022-10-16T15:37:50.671Z,1.40
2022-10-16T15:40:19.127Z,1.30
2022-10-16T15:42:46.148Z,1.50
2022-10-16T15:45:13.759Z,1.20
2022-10-16T15:47:44.980Z,1.60
2022-10-16T15:50:13.836Z,1.70
2022-10-16T15:52:41.114Z,1.93
2022-10-16T15:55:11.721Z,1.90
2022-10-16T15:57:40.413Z,2.03
2022-10-16T16:00:10.612Z,1.90
2022-10-16T16:02:38.114Z,1.77
2022-10-16T16:05:07.313Z,1.80
2022-10-16T16:07:35.330Z,1.53
2022-10-16T16:10:02.574Z,1.50
2022-10-16T16:12:29.787Z,1.57
2022-10-16T16:14:58.170Z,1.20
2022-10-16T16:17:26.806Z,1.50
2022-10-16T16:19:53.829Z,1.53
2022-10-16T16:22:20.854Z,1.50
2022-10-16T16:24:47.864Z,1.47
2022-10-16T16:27:15.034Z,1.60
2022-10-16T16:29:42.442Z,1.37
2022-10-16T16:32:09.856Z,1.50
2022-10-16T16:34:37.006Z,1.50
2022-10-16T16:37:04.091Z,1.40
2022-10-16T16:39:31.109Z,1.53
2022-10-16T16:42:03.745Z,1.70
2022-10-16T16:44:30.784Z,1.73
2022-10-16T16:46:57.828Z,2.50
2022-10-16T16:49:24.865Z,6.20
2022-10-16T16:51:51.940Z,4.77
2022-10-16T16:54:18.964Z,4.23
2022-10-16T16:56:46.054Z,4.23
2022-10-16T16:59:16.778Z,3.50
2022-10-16T17:01:43.945Z,4.37
2022-10-16T17:04:11.447Z,2.93
2022-10-16T17:06:38.870Z,2.80
2022-10-16T17:09:07.488Z,3.03
2022-10-16T17:11:35.527Z,2.43
2022-10-16T17:14:03.238Z,2.57
2022-10-16T17:16:35.088Z,2.17
2022-10-16T17:19:05.988Z,2.13
2022-10-16T17:21:33.195Z,1.93
2022-10-16T17:24:00.878Z,2.20
2022-10-16T17:26:28.504Z,1.67
2022-10-16T17:28:56.761Z,1.90
2022-10-16T17:31:25.405Z,2.40
2022-10-16T17:33:52.743Z,2.47
2022-10-16T17:36:20.608Z,2.63
2022-10-16T17:38:48.022Z,2.60
2022-10-16T17:41:16.735Z,2.70
2022-10-16T17:43:43.916Z,3.10
2022-10-16T17:46:11.676Z,3.13
2022-10-16T17:48:39.880Z,3.90
2022-10-16T17:51:08.077Z,3.50
2022-10-16T17:53:35.667Z,3.77
2022-10-16T17:56:03.515Z,3.60
2022-10-16T17:58:30.623Z,4.07
2022-10-16T18:00:57.985Z,4.10
2022-10-16T18:03:26.848Z,4.50
2022-10-16T18:05:54.266Z,3.67
2022-10-16T18:08:22.716Z,4.07
2022-10-16T18:10:52.360Z,3.50
2022-10-16T18:13:19.399Z,3.13
2022-10-16T18:15:46.446Z,2.73
2022-10-16T18:18:13.705Z,3.00
2022-10-16T18:20:40.768Z,2.87
2022-10-16T18:23:07.863Z,3.90
2022-10-16T18:25:34.888Z,3.30
2022-10-16T18:28:01.917Z,3.47
2022-10-16T18:30:29.084Z,3.53
2022-10-16T18:32:56.148Z,3.50
2022-10-16T18:35:23.194Z,3.10
2022-10-16T18:37:50.287Z,3.30
2022-10-16T18:40:17.372Z,3.47
2022-10-16T18:42:44.403Z,3.20
2022-10-16T18:45:11.507Z,3.60
2022-10-16T18:47:38.556Z,3.20
2022-10-16T18:50:09.604Z,3.20
2022-10-16T18:52:40.075Z,2.90
2022-10-16T18:55:07.574Z,3.33
2022-10-16T18:57:34.621Z,3.80
2022-10-16T19:00:01.598Z,3.70
2022-10-16T19:02:28.648Z,3.40
2022-10-16T19:04:55.728Z,2.80
2022-10-16T19:07:22.756Z,3.00
2022-10-16T19:09:49.804Z,2.77
2022-10-16T19:12:16.872Z,2.70
2022-10-16T19:14:43.936Z,3.00
2022-10-16T19:17:10.998Z,2.90
2022-10-16T19:19:38.174Z,2.87
2022-10-16T19:22:12.110Z,2.87
2022-10-16T19:24:39.565Z,3.73
2022-10-16T19:27:07.001Z,3.73
2022-10-16T19:29:34.087Z,3.90
2022-10-16T19:32:06.642Z,4.80
2022-10-16T19:34:34.648Z,5.03
2022-10-16T19:37:01.769Z,5.30
2022-10-16T19:39:28.811Z,5.70
2022-10-16T19:41:55.950Z,5.80
2022-10-16T19:44:23.003Z,5.60
2022-10-16T19:46:50.060Z,5.23
2022-10-16T19:49:20.768Z,5.40
2022-10-16T19:51:52.086Z,5.33
2022-10-16T19:54:19.274Z,4.90
2022-10-16T19:56:46.371Z,5.10
2022-10-16T19:59:16.191Z,5.00
2022-10-16T20:01:43.620Z,5.83
2022-10-16T20:04:10.819Z,5.30
2022-10-16T20:06:37.851Z,4.90
2022-10-16T20:09:05.237Z,4.90
2022-10-16T20:11:33.364Z,5.00
2022-10-16T20:14:00.806Z,5.20
2022-10-16T20:16:28.788Z,5.17
2022-10-16T20:18:56.124Z,5.40
2022-10-16T20:21:24.520Z,5.27
2022-10-16T20:23:51.659Z,5.53
2022-10-16T20:26:19.670Z,5.30
2022-10-16T20:28:46.891Z,5.07
2022-10-16T20:31:22.246Z,5.40
2022-10-16T20:33:52.756Z,5.23
2022-10-16T20:36:20.999Z,5.27
2022-10-16T20:38:48.192Z,5.13
2022-10-16T20:41:15.761Z,4.90
2022-10-16T20:46:17.383Z,4.90
2022-10-16T20:48:44.974Z,4.67
2022-10-16T20:51:13.013Z,4.73
2022-10-16T20:53:40.126Z,4.70
2022-10-16T20:56:08.877Z,4.60
2022-10-16T20:58:39.836Z,4.67
2022-10-16T21:01:07.767Z,4.80
2022-10-16T21:03:35.028Z,4.77
2022-10-16T21:06:02.748Z,4.20
2022-10-16T21:08:29.793Z,4.33
2022-10-16T21:10:56.877Z,4.57
2022-10-16T21:13:27.079Z,4.57
2022-10-16T21:15:57.044Z,4.70
2022-10-16T21:18:24.099Z,4.47
2022-10-16T21:20:51.114Z,4.53
2022-10-16T21:23:18.244Z,3.90
2022-10-16T21:25:48.724Z,4.43
2022-10-16T21:28:15.960Z,4.13
2022-10-16T21:30:43.375Z,4.00
2022-10-16T21:33:10.526Z,4.30
2022-10-16T21:35:38.096Z,4.60
2022-10-16T21:38:06.655Z,4.40
2022-10-16T21:40:34.420Z,4.40
2022-10-16T21:43:01.570Z,4.23
2022-10-16T21:45:28.597Z,4.33
2022-10-16T21:50:23.584Z,4.40
2022-10-16T21:52:50.589Z,4.37
2022-10-16T21:55:17.655Z,3.70
2022-10-16T21:57:45.079Z,3.73
2022-10-16T22:00:12.304Z,3.40
2022-10-16T22:02:39.340Z,3.73
2022-10-16T22:05:06.469Z,3.63
2022-10-16T22:07:33.495Z,3.53
2022-10-16T22:10:00.523Z,3.17
2022-10-16T22:12:27.552Z,3.20
2022-10-16T22:14:54.661Z,3.70
2022-10-16T22:17:21.700Z,3.10
2022-10-16T22:19:48.772Z,3.10
2022-10-16T22:22:15.815Z,3.10
2022-10-16T22:24:42.845Z,3.20
2022-10-16T22:27:09.866Z,3.40
2022-10-16T22:29:36.927Z,2.60
2022-10-16T22:32:04.028Z,3.27
2022-10-16T22:34:31.085Z,3.13
2022-10-16T22:36:58.113Z,3.17
2022-10-16T22:39:25.187Z,3.07
2022-10-16T22:41:52.202Z,3.57
2022-10-16T22:44:19.270Z,3.40
2022-10-16T22:46:46.294Z,3.43
2022-10-16T22:49:13.347Z,3.43
2022-10-16T22:51:40.431Z,3.30
2022-10-16T22:54:07.567Z,3.40
2022-10-16T22:56:34.679Z,3.20
2022-10-16T22:59:01.751Z,3.13
2022-10-16T23:01:30.747Z,3.40
2022-10-16T23:03:57.852Z,3.40
2022-10-16T23:06:25.123Z,3.80
2022-10-16T23:08:55.844Z,3.30
2022-10-16T23:11:23.258Z,3.67
2022-10-16T23:13:50.370Z,3.33
2022-10-16T23:16:18.466Z,3.57
2022-10-16T23:18:45.804Z,3.40
2022-10-16T23:21:14.535Z,3.33
2022-10-16T23:23:42.137Z,3.50
2022-10-16T23:26:19.708Z,3.23
2022-10-16T23:28:46.951Z,3.00
2022-10-16T23:31:15.087Z,2.97
2022-10-16T23:33:42.482Z,3.13
2022-10-16T23:36:11.460Z,2.97
2022-10-16T23:38:38.721Z,3.33
2022-10-16T23:41:06.288Z,2.73
2022-10-16T23:43:33.332Z,3.30
2022-10-16T23:46:00.437Z,2.77
2022-10-16T23:48:27.468Z,2.50
2022-10-16T23:50:54.621Z,2.67
2022-10-16T23:53:21.683Z,2.73
2022-10-16T23:55:48.726Z,2.83
2022-10-16T23:58:16.242Z,2.77
